ETSL

Lechfeld Airport

Germany
METAR ETSL 230920Z 05013KT 6000 DRSN OVC012 M05/M07 Q1013 GRN WHT TEMPO GRN
Observed Flight Rules
Feb-23 @ 09:20 UTC (an hour ago) Marginal Visual Flight Rules
Wind Visibility Clouds Conditions
50° at 13 knots 6,003 meters
  • Overcast at 1,200' AGL
  • Low drifting
  • Snow
Temperatures Readings
Current -5°C / 23°F
Dewpoint -7°C / 19°F
Humidity 86%
Altimeter 29.91" Hg
Pressure 1013 hPa
Elevation 562
METAR ETSL 230920Z 05013KT 6000 DRSN OVC012 M05/M07 Q1013 GRN WHT TEMPO GRN
Observed Flight Rules
Feb-23 @ 09:20 UTC
(an hour ago)
MVFR
Wind Visibility
50° at 13 knots 6,003 meters
Clouds
  • Overcast at 1,200' AGL
Conditions
  • Low drifting
  • Snow
Temperature Dewpoint
-5°C / 23°F -7°C / 19°F
Humidity Altimeter Pressure
86% 29.91" Hg 1013 hPa